sensor_id;sensor_type;location;lat;lon;timestamp;P1;durP1;ratioP1;P2;durP2;ratioP2
25327;SDS011;13279;51.300;12.394;2023-09-07T00:01:36;6.97;;;5.23;;
25327;SDS011;13279;51.300;12.394;2023-09-07T00:04:04;6.27;;;4.47;;
25327;SDS011;13279;51.300;12.394;2023-09-07T00:06:31;5.90;;;4.87;;
25327;SDS011;13279;51.300;12.394;2023-09-07T00:09:00;8.13;;;4.93;;
25327;SDS011;13279;51.300;12.394;2023-09-07T00:11:31;7.57;;;4.83;;
25327;SDS011;13279;51.300;12.394;2023-09-07T00:14:01;8.83;;;4.77;;
25327;SDS011;13279;51.300;12.394;2023-09-07T00:16:31;11.83;;;5.30;;
25327;SDS011;13279;51.300;12.394;2023-09-07T00:19:01;12.63;;;5.40;;
25327;SDS011;13279;51.300;12.394;2023-09-07T00:21:29;5.97;;;4.87;;
25327;SDS011;13279;51.300;12.394;2023-09-07T00:23:59;10.83;;;5.33;;
25327;SDS011;13279;51.300;12.394;2023-09-07T00:26:30;9.70;;;5.53;;
25327;SDS011;13279;51.300;12.394;2023-09-07T00:28:58;7.40;;;5.53;;
25327;SDS011;13279;51.300;12.394;2023-09-07T00:31:27;20.80;;;6.17;;
25327;SDS011;13279;51.300;12.394;2023-09-07T00:33:55;9.13;;;5.90;;
25327;SDS011;13279;51.300;12.394;2023-09-07T00:36:22;11.00;;;5.70;;
25327;SDS011;13279;51.300;12.394;2023-09-07T00:38:49;9.20;;;5.90;;
25327;SDS011;13279;51.300;12.394;2023-09-07T00:41:17;9.30;;;5.77;;
25327;SDS011;13279;51.300;12.394;2023-09-07T00:43:44;8.17;;;5.23;;
25327;SDS011;13279;51.300;12.394;2023-09-07T00:46:11;10.67;;;5.70;;
25327;SDS011;13279;51.300;12.394;2023-09-07T00:48:40;9.33;;;5.57;;
25327;SDS011;13279;51.300;12.394;2023-09-07T00:51:08;7.57;;;5.93;;
25327;SDS011;13279;51.300;12.394;2023-09-07T00:53:36;7.50;;;5.30;;
25327;SDS011;13279;51.300;12.394;2023-09-07T00:56:04;6.33;;;5.43;;
25327;SDS011;13279;51.300;12.394;2023-09-07T00:58:33;8.47;;;5.50;;
25327;SDS011;13279;51.300;12.394;2023-09-07T01:01:01;10.73;;;5.63;;
25327;SDS011;13279;51.300;12.394;2023-09-07T01:03:32;11.97;;;5.23;;
25327;SDS011;13279;51.300;12.394;2023-09-07T01:06:03;10.73;;;5.20;;
25327;SDS011;13279;51.300;12.394;2023-09-07T01:08:35;9.77;;;5.23;;
25327;SDS011;13279;51.300;12.394;2023-09-07T01:11:12;8.57;;;5.20;;
25327;SDS011;13279;51.300;12.394;2023-09-07T01:13:41;7.33;;;5.60;;
25327;SDS011;13279;51.300;12.394;2023-09-07T01:16:09;8.30;;;5.70;;
25327;SDS011;13279;51.300;12.394;2023-09-07T01:18:37;7.83;;;5.57;;
25327;SDS011;13279;51.300;12.394;2023-09-07T01:21:08;8.63;;;6.50;;
25327;SDS011;13279;51.300;12.394;2023-09-07T01:23:41;11.70;;;5.90;;
25327;SDS011;13279;51.300;12.394;2023-09-07T01:26:09;7.70;;;6.17;;
25327;SDS011;13279;51.300;12.394;2023-09-07T01:28:37;11.03;;;5.43;;
25327;SDS011;13279;51.300;12.394;2023-09-07T01:31:05;8.37;;;5.50;;
25327;SDS011;13279;51.300;12.394;2023-09-07T01:33:36;7.70;;;5.73;;
25327;SDS011;13279;51.300;12.394;2023-09-07T01:36:04;6.40;;;5.53;;
25327;SDS011;13279;51.300;12.394;2023-09-07T01:38:33;8.40;;;5.83;;
25327;SDS011;13279;51.300;12.394;2023-09-07T01:41:02;7.07;;;5.53;;
25327;SDS011;13279;51.300;12.394;2023-09-07T01:43:31;11.23;;;6.03;;
25327;SDS011;13279;51.300;12.394;2023-09-07T01:45:59;9.57;;;5.80;;
25327;SDS011;13279;51.300;12.394;2023-09-07T01:48:26;7.87;;;6.00;;
25327;SDS011;13279;51.300;12.394;2023-09-07T01:50:53;8.50;;;5.90;;
25327;SDS011;13279;51.300;12.394;2023-09-07T01:53:22;8.67;;;5.77;;
25327;SDS011;13279;51.300;12.394;2023-09-07T01:55:53;8.03;;;5.40;;
25327;SDS011;13279;51.300;12.394;2023-09-07T01:58:22;9.37;;;6.13;;
25327;SDS011;13279;51.300;12.394;2023-09-07T02:00:50;7.50;;;5.63;;
25327;SDS011;13279;51.300;12.394;2023-09-07T02:03:23;7.60;;;5.90;;
25327;SDS011;13279;51.300;12.394;2023-09-07T02:05:52;6.80;;;5.83;;
25327;SDS011;13279;51.300;12.394;2023-09-07T02:08:21;11.20;;;5.63;;
25327;SDS011;13279;51.300;12.394;2023-09-07T02:11:15;8.47;;;5.47;;
25327;SDS011;13279;51.300;12.394;2023-09-07T02:13:45;12.07;;;6.20;;
25327;SDS011;13279;51.300;12.394;2023-09-07T02:16:14;9.43;;;6.03;;
25327;SDS011;13279;51.300;12.394;2023-09-07T02:18:44;9.63;;;6.20;;
25327;SDS011;13279;51.300;12.394;2023-09-07T02:21:13;11.57;;;6.27;;
25327;SDS011;13279;51.300;12.394;2023-09-07T02:23:40;6.70;;;6.00;;
25327;SDS011;13279;51.300;12.394;2023-09-07T02:26:08;9.53;;;6.83;;
25327;SDS011;13279;51.300;12.394;2023-09-07T02:28:35;11.60;;;5.90;;
25327;SDS011;13279;51.300;12.394;2023-09-07T02:31:04;8.50;;;6.10;;
25327;SDS011;13279;51.300;12.394;2023-09-07T02:33:34;8.97;;;6.50;;
25327;SDS011;13279;51.300;12.394;2023-09-07T02:36:02;7.77;;;5.63;;
25327;SDS011;13279;51.300;12.394;2023-09-07T02:38:30;8.33;;;5.87;;
25327;SDS011;13279;51.300;12.394;2023-09-07T02:40:58;8.57;;;5.83;;
25327;SDS011;13279;51.300;12.394;2023-09-07T02:43:26;7.60;;;6.53;;
25327;SDS011;13279;51.300;12.394;2023-09-07T02:45:54;10.83;;;7.00;;
25327;SDS011;13279;51.300;12.394;2023-09-07T02:48:23;11.93;;;5.97;;
25327;SDS011;13279;51.300;12.394;2023-09-07T02:50:51;9.90;;;6.27;;
25327;SDS011;13279;51.300;12.394;2023-09-07T02:53:22;12.50;;;5.80;;
25327;SDS011;13279;51.300;12.394;2023-09-07T02:55:50;6.83;;;5.63;;
25327;SDS011;13279;51.300;12.394;2023-09-07T02:58:17;8.40;;;6.37;;
25327;SDS011;13279;51.300;12.394;2023-09-07T03:00:45;9.47;;;6.53;;
25327;SDS011;13279;51.300;12.394;2023-09-07T03:03:14;7.17;;;5.90;;
25327;SDS011;13279;51.300;12.394;2023-09-07T03:05:45;9.07;;;6.53;;
25327;SDS011;13279;51.300;12.394;2023-09-07T03:08:14;9.53;;;6.67;;
25327;SDS011;13279;51.300;12.394;2023-09-07T03:10:41;9.83;;;6.33;;
25327;SDS011;13279;51.300;12.394;2023-09-07T03:13:09;8.80;;;6.40;;
25327;SDS011;13279;51.300;12.394;2023-09-07T03:15:37;9.73;;;6.37;;
25327;SDS011;13279;51.300;12.394;2023-09-07T03:18:09;7.87;;;5.90;;
25327;SDS011;13279;51.300;12.394;2023-09-07T03:20:38;8.90;;;6.30;;
25327;SDS011;13279;51.300;12.394;2023-09-07T03:23:07;8.80;;;6.43;;
25327;SDS011;13279;51.300;12.394;2023-09-07T03:25:35;7.07;;;6.03;;
25327;SDS011;13279;51.300;12.394;2023-09-07T03:28:03;9.07;;;6.27;;
25327;SDS011;13279;51.300;12.394;2023-09-07T03:30:34;10.57;;;6.83;;
25327;SDS011;13279;51.300;12.394;2023-09-07T03:33:03;9.27;;;7.27;;
25327;SDS011;13279;51.300;12.394;2023-09-07T03:35:30;8.53;;;6.30;;
25327;SDS011;13279;51.300;12.394;2023-09-07T03:37:58;9.37;;;7.07;;
25327;SDS011;13279;51.300;12.394;2023-09-07T03:40:29;10.03;;;7.10;;
25327;SDS011;13279;51.300;12.394;2023-09-07T03:42:58;12.23;;;7.13;;
25327;SDS011;13279;51.300;12.394;2023-09-07T03:45:27;8.63;;;6.57;;
25327;SDS011;13279;51.300;12.394;2023-09-07T03:47:57;9.03;;;6.70;;
25327;SDS011;13279;51.300;12.394;2023-09-07T03:50:25;8.40;;;6.63;;
25327;SDS011;13279;51.300;12.394;2023-09-07T03:52:52;10.87;;;7.50;;
25327;SDS011;13279;51.300;12.394;2023-09-07T03:55:21;9.97;;;7.00;;
25327;SDS011;13279;51.300;12.394;2023-09-07T03:57:49;10.07;;;7.37;;
25327;SDS011;13279;51.300;12.394;2023-09-07T04:00:17;11.13;;;7.40;;
25327;SDS011;13279;51.300;12.394;2023-09-07T04:02:47;12.50;;;7.17;;
25327;SDS011;13279;51.300;12.394;2023-09-07T04:05:14;8.40;;;6.73;;
25327;SDS011;13279;51.300;12.394;2023-09-07T04:07:42;11.43;;;7.37;;
25327;SDS011;13279;51.300;12.394;2023-09-07T04:10:09;12.47;;;7.20;;
25327;SDS011;13279;51.300;12.394;2023-09-07T04:12:37;11.57;;;7.00;;
25327;SDS011;13279;51.300;12.394;2023-09-07T04:15:07;14.70;;;6.73;;
25327;SDS011;13279;51.300;12.394;2023-09-07T04:17:35;8.67;;;7.27;;
25327;SDS011;13279;51.300;12.394;2023-09-07T04:20:06;17.93;;;6.93;;
25327;SDS011;13279;51.300;12.394;2023-09-07T04:22:38;9.53;;;7.17;;
25327;SDS011;13279;51.300;12.394;2023-09-07T04:25:06;9.70;;;7.13;;
25327;SDS011;13279;51.300;12.394;2023-09-07T04:27:33;13.97;;;7.03;;
25327;SDS011;13279;51.300;12.394;2023-09-07T04:30:01;7.93;;;6.97;;
25327;SDS011;13279;51.300;12.394;2023-09-07T04:32:32;8.67;;;6.87;;
25327;SDS011;13279;51.300;12.394;2023-09-07T04:35:00;9.57;;;6.40;;
25327;SDS011;13279;51.300;12.394;2023-09-07T04:37:29;10.70;;;6.50;;
25327;SDS011;13279;51.300;12.394;2023-09-07T04:40:00;11.60;;;6.83;;
25327;SDS011;13279;51.300;12.394;2023-09-07T04:42:28;9.83;;;6.30;;
25327;SDS011;13279;51.300;12.394;2023-09-07T04:44:56;9.67;;;6.87;;
25327;SDS011;13279;51.300;12.394;2023-09-07T04:47:24;11.93;;;6.73;;
25327;SDS011;13279;51.300;12.394;2023-09-07T04:49:53;8.23;;;6.70;;
25327;SDS011;13279;51.300;12.394;2023-09-07T04:52:22;13.03;;;7.07;;
25327;SDS011;13279;51.300;12.394;2023-09-07T04:54:50;9.33;;;7.40;;
25327;SDS011;13279;51.300;12.394;2023-09-07T04:57:18;8.40;;;6.13;;
25327;SDS011;13279;51.300;12.394;2023-09-07T04:59:47;9.13;;;7.10;;
25327;SDS011;13279;51.300;12.394;2023-09-07T05:02:15;12.97;;;7.00;;
25327;SDS011;13279;51.300;12.394;2023-09-07T05:04:43;12.90;;;7.47;;
25327;SDS011;13279;51.300;12.394;2023-09-07T05:07:13;8.03;;;7.23;;
25327;SDS011;13279;51.300;12.394;2023-09-07T05:09:41;10.63;;;7.57;;
25327;SDS011;13279;51.300;12.394;2023-09-07T05:12:09;9.10;;;7.17;;
25327;SDS011;13279;51.300;12.394;2023-09-07T05:14:37;10.13;;;7.70;;
25327;SDS011;13279;51.300;12.394;2023-09-07T05:17:06;8.73;;;6.70;;
25327;SDS011;13279;51.300;12.394;2023-09-07T05:19:33;15.97;;;7.73;;
25327;SDS011;13279;51.300;12.394;2023-09-07T05:22:04;9.90;;;7.17;;
25327;SDS011;13279;51.300;12.394;2023-09-07T05:24:44;11.63;;;7.63;;
25327;SDS011;13279;51.300;12.394;2023-09-07T05:27:14;13.43;;;7.70;;
25327;SDS011;13279;51.300;12.394;2023-09-07T05:29:44;11.00;;;6.50;;
25327;SDS011;13279;51.300;12.394;2023-09-07T05:32:12;15.03;;;7.50;;
25327;SDS011;13279;51.300;12.394;2023-09-07T05:34:40;12.20;;;7.57;;
25327;SDS011;13279;51.300;12.394;2023-09-07T05:37:09;10.23;;;8.40;;
25327;SDS011;13279;51.300;12.394;2023-09-07T05:39:40;14.90;;;8.03;;
25327;SDS011;13279;51.300;12.394;2023-09-07T05:42:08;12.43;;;8.03;;
25327;SDS011;13279;51.300;12.394;2023-09-07T05:44:36;14.90;;;8.03;;
25327;SDS011;13279;51.300;12.394;2023-09-07T05:47:04;12.67;;;8.03;;
25327;SDS011;13279;51.300;12.394;2023-09-07T05:49:32;14.93;;;8.77;;
25327;SDS011;13279;51.300;12.394;2023-09-07T05:52:01;8.93;;;7.20;;
25327;SDS011;13279;51.300;12.394;2023-09-07T05:54:29;11.87;;;8.10;;
25327;SDS011;13279;51.300;12.394;2023-09-07T05:56:58;12.63;;;8.37;;
25327;SDS011;13279;51.300;12.394;2023-09-07T05:59:26;15.33;;;9.20;;
25327;SDS011;13279;51.300;12.394;2023-09-07T06:01:54;9.03;;;8.13;;
25327;SDS011;13279;51.300;12.394;2023-09-07T06:04:22;14.40;;;7.87;;
25327;SDS011;13279;51.300;12.394;2023-09-07T06:06:50;12.40;;;8.80;;
25327;SDS011;13279;51.300;12.394;2023-09-07T06:09:18;11.80;;;8.30;;
25327;SDS011;13279;51.300;12.394;2023-09-07T06:11:45;11.97;;;8.23;;
25327;SDS011;13279;51.300;12.394;2023-09-07T06:14:15;15.60;;;8.83;;
25327;SDS011;13279;51.300;12.394;2023-09-07T06:16:42;11.37;;;8.07;;
25327;SDS011;13279;51.300;12.394;2023-09-07T06:19:10;12.40;;;8.10;;
25327;SDS011;13279;51.300;12.394;2023-09-07T06:21:39;10.23;;;7.73;;
25327;SDS011;13279;51.300;12.394;2023-09-07T06:24:07;10.37;;;7.90;;
25327;SDS011;13279;51.300;12.394;2023-09-07T06:26:35;14.07;;;7.80;;
25327;SDS011;13279;51.300;12.394;2023-09-07T06:29:03;10.97;;;7.53;;
25327;SDS011;13279;51.300;12.394;2023-09-07T06:31:33;14.47;;;8.00;;
25327;SDS011;13279;51.300;12.394;2023-09-07T06:34:01;12.90;;;7.93;;
25327;SDS011;13279;51.300;12.394;2023-09-07T06:36:29;10.00;;;7.70;;
25327;SDS011;13279;51.300;12.394;2023-09-07T06:38:57;11.57;;;7.57;;
25327;SDS011;13279;51.300;12.394;2023-09-07T06:41:25;9.93;;;6.93;;
25327;SDS011;13279;51.300;12.394;2023-09-07T06:43:54;11.53;;;7.43;;
25327;SDS011;13279;51.300;12.394;2023-09-07T06:46:21;12.67;;;6.47;;
25327;SDS011;13279;51.300;12.394;2023-09-07T06:48:54;11.13;;;6.97;;
25327;SDS011;13279;51.300;12.394;2023-09-07T06:51:22;15.47;;;6.70;;
25327;SDS011;13279;51.300;12.394;2023-09-07T06:53:50;6.77;;;5.80;;
25327;SDS011;13279;51.300;12.394;2023-09-07T06:56:17;12.77;;;6.83;;
25327;SDS011;13279;51.300;12.394;2023-09-07T06:58:47;10.93;;;5.93;;
25327;SDS011;13279;51.300;12.394;2023-09-07T07:01:19;9.57;;;5.40;;
25327;SDS011;13279;51.300;12.394;2023-09-07T07:03:47;10.20;;;6.50;;
25327;SDS011;13279;51.300;12.394;2023-09-07T07:06:16;12.60;;;5.37;;
25327;SDS011;13279;51.300;12.394;2023-09-07T07:08:46;8.70;;;6.30;;
25327;SDS011;13279;51.300;12.394;2023-09-07T07:11:13;7.87;;;5.80;;
25327;SDS011;13279;51.300;12.394;2023-09-07T07:13:41;9.23;;;5.83;;
25327;SDS011;13279;51.300;12.394;2023-09-07T07:16:10;7.47;;;5.40;;
25327;SDS011;13279;51.300;12.394;2023-09-07T07:18:37;10.00;;;5.80;;
25327;SDS011;13279;51.300;12.394;2023-09-07T07:21:07;6.80;;;5.10;;
25327;SDS011;13279;51.300;12.394;2023-09-07T07:23:36;12.53;;;5.67;;
25327;SDS011;13279;51.300;12.394;2023-09-07T07:26:04;8.53;;;5.47;;
25327;SDS011;13279;51.300;12.394;2023-09-07T07:28:31;8.97;;;5.50;;
25327;SDS011;13279;51.300;12.394;2023-09-07T07:30:59;7.70;;;5.37;;
25327;SDS011;13279;51.300;12.394;2023-09-07T07:33:40;7.03;;;4.93;;
25327;SDS011;13279;51.300;12.394;2023-09-07T07:36:08;6.23;;;4.87;;
25327;SDS011;13279;51.300;12.394;2023-09-07T07:38:37;10.30;;;5.00;;
25327;SDS011;13279;51.300;12.394;2023-09-07T07:41:06;13.10;;;5.20;;
25327;SDS011;13279;51.300;12.394;2023-09-07T07:43:34;7.13;;;5.60;;
25327;SDS011;13279;51.300;12.394;2023-09-07T07:46:03;8.27;;;4.30;;
25327;SDS011;13279;51.300;12.394;2023-09-07T07:48:32;6.77;;;4.23;;
25327;SDS011;13279;51.300;12.394;2023-09-07T07:51:02;12.53;;;4.57;;
25327;SDS011;13279;51.300;12.394;2023-09-07T07:53:31;6.77;;;4.73;;
25327;SDS011;13279;51.300;12.394;2023-09-07T07:55:59;5.93;;;4.60;;
25327;SDS011;13279;51.300;12.394;2023-09-07T07:58:28;6.97;;;4.60;;
25327;SDS011;13279;51.300;12.394;2023-09-07T08:00:56;5.73;;;4.53;;
25327;SDS011;13279;51.300;12.394;2023-09-07T08:03:29;6.93;;;3.90;;
25327;SDS011;13279;51.300;12.394;2023-09-07T08:05:56;6.50;;;4.33;;
25327;SDS011;13279;51.300;12.394;2023-09-07T08:08:24;4.53;;;3.70;;
25327;SDS011;13279;51.300;12.394;2023-09-07T08:10:51;5.60;;;4.77;;
25327;SDS011;13279;51.300;12.394;2023-09-07T08:13:20;8.97;;;5.03;;
25327;SDS011;13279;51.300;12.394;2023-09-07T08:15:48;5.43;;;4.10;;
25327;SDS011;13279;51.300;12.394;2023-09-07T08:18:16;5.93;;;4.53;;
25327;SDS011;13279;51.300;12.394;2023-09-07T08:20:44;9.40;;;4.67;;
25327;SDS011;13279;51.300;12.394;2023-09-07T08:23:11;6.30;;;4.37;;
25327;SDS011;13279;51.300;12.394;2023-09-07T08:25:39;9.53;;;5.00;;
25327;SDS011;13279;51.300;12.394;2023-09-07T08:28:12;10.37;;;4.97;;
25327;SDS011;13279;51.300;12.394;2023-09-07T08:30:42;7.50;;;4.83;;
25327;SDS011;13279;51.300;12.394;2023-09-07T08:33:10;12.30;;;4.30;;
25327;SDS011;13279;51.300;12.394;2023-09-07T08:35:37;7.20;;;4.47;;
25327;SDS011;13279;51.300;12.394;2023-09-07T08:38:10;6.87;;;4.43;;
25327;SDS011;13279;51.300;12.394;2023-09-07T08:40:38;12.90;;;4.27;;
25327;SDS011;13279;51.300;12.394;2023-09-07T08:43:08;9.23;;;4.30;;
25327;SDS011;13279;51.300;12.394;2023-09-07T08:45:42;8.07;;;4.30;;
25327;SDS011;13279;51.300;12.394;2023-09-07T08:48:16;5.53;;;4.73;;
25327;SDS011;13279;51.300;12.394;2023-09-07T08:50:45;12.83;;;4.33;;
25327;SDS011;13279;51.300;12.394;2023-09-07T08:53:16;7.83;;;4.40;;
25327;SDS011;13279;51.300;12.394;2023-09-07T08:55:45;4.13;;;3.77;;
25327;SDS011;13279;51.300;12.394;2023-09-07T08:58:13;6.37;;;4.10;;
25327;SDS011;13279;51.300;12.394;2023-09-07T09:00:40;9.93;;;4.50;;
25327;SDS011;13279;51.300;12.394;2023-09-07T09:03:11;8.47;;;3.77;;
25327;SDS011;13279;51.300;12.394;2023-09-07T09:05:39;5.37;;;3.70;;
25327;SDS011;13279;51.300;12.394;2023-09-07T09:08:07;7.85;;;4.47;;
25327;SDS011;13279;51.300;12.394;2023-09-07T09:10:37;23.95;;;4.45;;
25327;SDS011;13279;51.300;12.394;2023-09-07T09:13:05;6.38;;;3.58;;
25327;SDS011;13279;51.300;12.394;2023-09-07T09:15:37;5.43;;;4.32;;
25327;SDS011;13279;51.300;12.394;2023-09-07T09:18:12;6.30;;;4.00;;
25327;SDS011;13279;51.300;12.394;2023-09-07T09:20:40;6.43;;;4.03;;
25327;SDS011;13279;51.300;12.394;2023-09-07T09:23:07;4.95;;;3.65;;
25327;SDS011;13279;51.300;12.394;2023-09-07T09:25:34;3.83;;;3.40;;
25327;SDS011;13279;51.300;12.394;2023-09-07T09:28:02;5.18;;;3.80;;
25327;SDS011;13279;51.300;12.394;2023-09-07T09:30:31;3.92;;;3.38;;
25327;SDS011;13279;51.300;12.394;2023-09-07T09:32:59;4.65;;;3.60;;
25327;SDS011;13279;51.300;12.394;2023-09-07T09:35:30;6.97;;;3.30;;
25327;SDS011;13279;51.300;12.394;2023-09-07T09:38:00;6.43;;;4.05;;
25327;SDS011;13279;51.300;12.394;2023-09-07T09:40:29;5.30;;;3.70;;
25327;SDS011;13279;51.300;12.394;2023-09-07T09:42:58;10.63;;;3.80;;
25327;SDS011;13279;51.300;12.394;2023-09-07T09:45:28;5.30;;;3.83;;
25327;SDS011;13279;51.300;12.394;2023-09-07T09:47:55;4.90;;;3.97;;
25327;SDS011;13279;51.300;12.394;2023-09-07T09:50:25;7.45;;;4.10;;
25327;SDS011;13279;51.300;12.394;2023-09-07T09:52:55;7.70;;;4.38;;
25327;SDS011;13279;51.300;12.394;2023-09-07T09:55:24;4.63;;;4.20;;
25327;SDS011;13279;51.300;12.394;2023-09-07T09:57:52;6.28;;;4.75;;
25327;SDS011;13279;51.300;12.394;2023-09-07T10:00:22;6.38;;;4.68;;
25327;SDS011;13279;51.300;12.394;2023-09-07T10:02:55;10.00;;;4.82;;
25327;SDS011;13279;51.300;12.394;2023-09-07T10:05:27;6.63;;;4.63;;
25327;SDS011;13279;51.300;12.394;2023-09-07T10:08:01;7.55;;;4.38;;
25327;SDS011;13279;51.300;12.394;2023-09-07T10:10:34;9.05;;;4.93;;
25327;SDS011;13279;51.300;12.394;2023-09-07T10:13:03;10.48;;;4.93;;
25327;SDS011;13279;51.300;12.394;2023-09-07T10:15:31;7.13;;;4.85;;
25327;SDS011;13279;51.300;12.394;2023-09-07T10:18:05;6.70;;;4.90;;
25327;SDS011;13279;51.300;12.394;2023-09-07T10:20:47;6.72;;;4.65;;
25327;SDS011;13279;51.300;12.394;2023-09-07T10:23:20;7.10;;;4.63;;
25327;SDS011;13279;51.300;12.394;2023-09-07T10:26:03;8.02;;;4.13;;
25327;SDS011;13279;51.300;12.394;2023-09-07T10:28:30;5.20;;;3.92;;
25327;SDS011;13279;51.300;12.394;2023-09-07T10:30:59;7.40;;;4.55;;
25327;SDS011;13279;51.300;12.394;2023-09-07T10:33:28;7.22;;;3.90;;
25327;SDS011;13279;51.300;12.394;2023-09-07T10:35:57;9.38;;;4.25;;
25327;SDS011;13279;51.300;12.394;2023-09-07T10:38:26;7.60;;;3.80;;
25327;SDS011;13279;51.300;12.394;2023-09-07T10:40:54;6.88;;;3.85;;
25327;SDS011;13279;51.300;12.394;2023-09-07T10:43:26;12.45;;;4.32;;
25327;SDS011;13279;51.300;12.394;2023-09-07T10:45:54;6.05;;;3.50;;
25327;SDS011;13279;51.300;12.394;2023-09-07T10:48:22;6.38;;;3.55;;
25327;SDS011;13279;51.300;12.394;2023-09-07T10:50:51;8.35;;;3.28;;
25327;SDS011;13279;51.300;12.394;2023-09-07T10:53:25;3.97;;;3.35;;
25327;SDS011;13279;51.300;12.394;2023-09-07T10:55:57;3.83;;;3.40;;
25327;SDS011;13279;51.300;12.394;2023-09-07T10:58:25;5.28;;;3.78;;
25327;SDS011;13279;51.300;12.394;2023-09-07T11:00:54;4.20;;;3.63;;
25327;SDS011;13279;51.300;12.394;2023-09-07T11:03:22;6.00;;;2.97;;
25327;SDS011;13279;51.300;12.394;2023-09-07T11:05:51;3.15;;;2.92;;
25327;SDS011;13279;51.300;12.394;2023-09-07T11:08:20;5.88;;;3.25;;
25327;SDS011;13279;51.300;12.394;2023-09-07T11:10:51;4.40;;;3.22;;
25327;SDS011;13279;51.300;12.394;2023-09-07T11:13:18;5.13;;;2.90;;
25327;SDS011;13279;51.300;12.394;2023-09-07T11:15:46;6.10;;;3.42;;
25327;SDS011;13279;51.300;12.394;2023-09-07T11:18:13;3.58;;;3.28;;
25327;SDS011;13279;51.300;12.394;2023-09-07T11:20:47;4.80;;;3.35;;
25327;SDS011;13279;51.300;12.394;2023-09-07T11:23:16;4.00;;;3.17;;
25327;SDS011;13279;51.300;12.394;2023-09-07T11:25:45;4.70;;;3.55;;
25327;SDS011;13279;51.300;12.394;2023-09-07T11:28:15;3.33;;;3.08;;
25327;SDS011;13279;51.300;12.394;2023-09-07T11:30:50;3.50;;;3.08;;
25327;SDS011;13279;51.300;12.394;2023-09-07T11:33:20;6.55;;;2.88;;
25327;SDS011;13279;51.300;12.394;2023-09-07T11:35:47;5.32;;;3.25;;
25327;SDS011;13279;51.300;12.394;2023-09-07T11:38:15;6.15;;;3.05;;
25327;SDS011;13279;51.300;12.394;2023-09-07T11:40:44;3.05;;;2.85;;
25327;SDS011;13279;51.300;12.394;2023-09-07T11:43:12;8.55;;;3.67;;
25327;SDS011;13279;51.300;12.394;2023-09-07T11:45:41;4.07;;;2.80;;
25327;SDS011;13279;51.300;12.394;2023-09-07T11:48:09;3.45;;;3.13;;
25327;SDS011;13279;51.300;12.394;2023-09-07T11:50:37;3.45;;;3.15;;
25327;SDS011;13279;51.300;12.394;2023-09-07T11:53:06;4.60;;;3.28;;
25327;SDS011;13279;51.300;12.394;2023-09-07T11:55:34;8.52;;;3.35;;
25327;SDS011;13279;51.300;12.394;2023-09-07T11:58:03;4.00;;;3.35;;
25327;SDS011;13279;51.300;12.394;2023-09-07T12:00:30;5.55;;;3.15;;
25327;SDS011;13279;51.300;12.394;2023-09-07T12:03:00;9.18;;;3.38;;
25327;SDS011;13279;51.300;12.394;2023-09-07T12:05:27;5.13;;;3.60;;
25327;SDS011;13279;51.300;12.394;2023-09-07T12:07:55;6.15;;;3.50;;
25327;SDS011;13279;51.300;12.394;2023-09-07T12:10:22;10.13;;;3.15;;
25327;SDS011;13279;51.300;12.394;2023-09-07T12:12:50;6.28;;;3.40;;
25327;SDS011;13279;51.300;12.394;2023-09-07T12:15:18;7.35;;;3.25;;
25327;SDS011;13279;51.300;12.394;2023-09-07T12:17:45;7.68;;;3.15;;
25327;SDS011;13279;51.300;12.394;2023-09-07T12:20:15;7.85;;;2.90;;
25327;SDS011;13279;51.300;12.394;2023-09-07T12:22:42;7.32;;;3.03;;
25327;SDS011;13279;51.300;12.394;2023-09-07T12:25:09;12.07;;;3.45;;
25327;SDS011;13279;51.300;12.394;2023-09-07T12:27:38;7.53;;;3.50;;
25327;SDS011;13279;51.300;12.394;2023-09-07T12:30:08;3.50;;;3.15;;
25327;SDS011;13279;51.300;12.394;2023-09-07T12:32:38;6.28;;;2.97;;
25327;SDS011;13279;51.300;12.394;2023-09-07T12:35:06;4.55;;;3.20;;
25327;SDS011;13279;51.300;12.394;2023-09-07T12:37:36;3.58;;;3.03;;
25327;SDS011;13279;51.300;12.394;2023-09-07T12:40:03;2.92;;;2.58;;
25327;SDS011;13279;51.300;12.394;2023-09-07T12:42:38;5.70;;;3.20;;
25327;SDS011;13279;51.300;12.394;2023-09-07T12:45:07;5.97;;;3.08;;
25327;SDS011;13279;51.300;12.394;2023-09-07T12:47:34;3.72;;;3.17;;
25327;SDS011;13279;51.300;12.394;2023-09-07T12:50:02;5.38;;;3.15;;
25327;SDS011;13279;51.300;12.394;2023-09-07T12:52:30;4.78;;;3.10;;
25327;SDS011;13279;51.300;12.394;2023-09-07T12:54:58;2.78;;;2.58;;
25327;SDS011;13279;51.300;12.394;2023-09-07T12:57:27;4.07;;;2.85;;
25327;SDS011;13279;51.300;12.394;2023-09-07T12:59:54;3.08;;;2.83;;
25327;SDS011;13279;51.300;12.394;2023-09-07T13:02:22;4.38;;;2.80;;
25327;SDS011;13279;51.300;12.394;2023-09-07T13:04:49;4.03;;;2.53;;
25327;SDS011;13279;51.300;12.394;2023-09-07T13:07:17;5.93;;;2.97;;
25327;SDS011;13279;51.300;12.394;2023-09-07T13:09:44;8.70;;;2.80;;
25327;SDS011;13279;51.300;12.394;2023-09-07T13:12:13;5.38;;;2.90;;
25327;SDS011;13279;51.300;12.394;2023-09-07T13:14:40;3.75;;;3.20;;
25327;SDS011;13279;51.300;12.394;2023-09-07T13:17:11;11.95;;;2.55;;
25327;SDS011;13279;51.300;12.394;2023-09-07T13:19:39;5.18;;;2.40;;
25327;SDS011;13279;51.300;12.394;2023-09-07T13:22:06;8.32;;;2.60;;
25327;SDS011;13279;51.300;12.394;2023-09-07T13:24:35;6.80;;;2.70;;
25327;SDS011;13279;51.300;12.394;2023-09-07T13:27:03;6.57;;;3.25;;
25327;SDS011;13279;51.300;12.394;2023-09-07T13:29:32;8.85;;;2.60;;
25327;SDS011;13279;51.300;12.394;2023-09-07T13:32:00;3.60;;;2.60;;
25327;SDS011;13279;51.300;12.394;2023-09-07T13:34:27;8.90;;;2.72;;
25327;SDS011;13279;51.300;12.394;2023-09-07T13:36:55;3.78;;;2.35;;
25327;SDS011;13279;51.300;12.394;2023-09-07T13:39:23;5.05;;;2.67;;
25327;SDS011;13279;51.300;12.394;2023-09-07T13:41:50;3.80;;;2.50;;
25327;SDS011;13279;51.300;12.394;2023-09-07T13:44:17;6.28;;;3.03;;
25327;SDS011;13279;51.300;12.394;2023-09-07T13:46:46;3.30;;;2.45;;
25327;SDS011;13279;51.300;12.394;2023-09-07T13:49:14;4.00;;;2.80;;
25327;SDS011;13279;51.300;12.394;2023-09-07T13:51:40;4.45;;;2.58;;
25327;SDS011;13279;51.300;12.394;2023-09-07T13:54:08;5.05;;;2.35;;
25327;SDS011;13279;51.300;12.394;2023-09-07T13:56:36;8.43;;;2.88;;
25327;SDS011;13279;51.300;12.394;2023-09-07T13:59:04;3.53;;;2.40;;
25327;SDS011;13279;51.300;12.394;2023-09-07T14:01:31;4.97;;;2.75;;
25327;SDS011;13279;51.300;12.394;2023-09-07T14:04:00;2.92;;;2.58;;
25327;SDS011;13279;51.300;12.394;2023-09-07T14:06:27;3.10;;;2.67;;
25327;SDS011;13279;51.300;12.394;2023-09-07T14:08:55;5.32;;;3.05;;
25327;SDS011;13279;51.300;12.394;2023-09-07T14:11:22;4.78;;;2.60;;
25327;SDS011;13279;51.300;12.394;2023-09-07T14:13:50;3.38;;;3.00;;
25327;SDS011;13279;51.300;12.394;2023-09-07T14:16:17;5.70;;;2.65;;
25327;SDS011;13279;51.300;12.394;2023-09-07T14:18:45;5.82;;;2.90;;
25327;SDS011;13279;51.300;12.394;2023-09-07T14:21:14;8.60;;;2.95;;
25327;SDS011;13279;51.300;12.394;2023-09-07T14:23:42;2.72;;;2.53;;
25327;SDS011;13279;51.300;12.394;2023-09-07T14:26:10;2.70;;;2.50;;
25327;SDS011;13279;51.300;12.394;2023-09-07T14:28:37;3.40;;;2.65;;
25327;SDS011;13279;51.300;12.394;2023-09-07T14:31:05;6.35;;;3.13;;
25327;SDS011;13279;51.300;12.394;2023-09-07T14:33:34;4.82;;;2.83;;
25327;SDS011;13279;51.300;12.394;2023-09-07T14:36:04;5.43;;;3.03;;
25327;SDS011;13279;51.300;12.394;2023-09-07T14:38:34;4.22;;;2.47;;
25327;SDS011;13279;51.300;12.394;2023-09-07T14:41:06;5.45;;;2.60;;